Time;durP1;ratioP1;P1;durP2;ratioP2;P2;SDS_P1;SDS_P2;PMS_P1;PMS_P2;Temp;Humidity;BMP_temperature;BMP_pressure;BME280_temperature;BME280_humidity;BME280_pressure;Samples;Min_cycle;Max_cycle;Signal;HPM_P1;HPM_P2
2023/04/30 00:00:07;;;;;;;;;;;;;;;14.21;66.08;99789.34;4453916;32;34197;-80
2023/04/30 00:02:37;;;;;;;;;;;;;;;14.08;66.70;99781.97;4457811;32;33895;-80
2023/04/30 00:05:04;;;;;;;;;;;;;;;13.82;67.67;99778.59;4459220;32;33025;-80
2023/04/30 00:07:32;;;;;;;;;;;;;;;14.18;66.05;99793.56;4454026;32;34209;-79
2023/04/30 00:09:59;;;;;;;;;;;;;;;13.82;67.23;99789.00;4452604;32;34804;-80
2023/04/30 00:12:27;;;;;;;;;;;;;;;14.26;66.19;99787.75;4456953;32;33855;-80
2023/04/30 00:14:55;;;;;;;;;;;;;;;14.26;66.37;99781.66;4452535;32;33614;-80
2023/04/30 00:17:22;;;;;;;;;;;;;;;15.06;63.27;99787.41;4461982;32;33283;-79
2023/04/30 00:19:50;;;;;;;;;;;;;;;14.94;62.90;99789.69;4463967;32;34070;-80
2023/04/30 00:22:17;;;;;;;;;;;;;;;14.49;65.22;99785.81;4460118;32;34183;-80
2023/04/30 00:24:44;;;;;;;;;;;;;;;13.45;69.31;99800.84;4455702;32;34171;-80
2023/04/30 00:27:12;;;;;;;;;;;;;;;13.54;69.01;99796.81;4457736;32;33419;-80
2023/04/30 00:29:40;;;;;;;;;;;;;;;13.25;70.22;99794.91;4464112;32;34218;-80
2023/04/30 00:32:07;;;;;;;;;;;;;;;13.28;70.05;99790.69;4462622;32;34950;-80
2023/04/30 00:34:34;;;;;;;;;;;;;;;13.22;70.51;99794.81;4460777;32;34161;-80
2023/04/30 00:37:02;;;;;;;;;;;;;;;13.15;70.71;99794.63;4461319;32;33232;-79
2023/04/30 00:39:29;;;;;;;;;;;;;;;12.94;71.83;99804.25;4463626;32;34128;-80
2023/04/30 00:41:58;;;;;;;;;;;;;;;13.11;71.01;99795.31;4463826;32;33909;-80
2023/04/30 00:44:25;;;;;;;;;;;;;;;13.42;69.96;99793.78;4462436;32;33780;-80
2023/04/30 00:46:52;;;;;;;;;;;;;;;13.62;69.34;99797.06;4461366;32;33437;-80
2023/04/30 00:49:20;;;;;;;;;;;;;;;13.56;68.75;99789.94;4462802;32;34981;-80
2023/04/30 00:51:48;;;;;;;;;;;;;;;14.64;65.04;99790.63;4454533;32;34201;-80
2023/04/30 00:54:15;;;;;;;;;;;;;;;13.96;67.17;99788.63;4461496;32;34739;-80
2023/04/30 00:56:43;;;;;;;;;;;;;;;13.15;70.16;99784.22;4462430;32;34026;-80
2023/04/30 00:59:10;;;;;;;;;;;;;;;13.42;68.85;99786.00;4462308;32;34233;-80
2023/04/30 01:01:37;;;;;;;;;;;;;;;13.22;70.32;99780.09;4462680;32;34502;-79
2023/04/30 01:04:05;;;;;;;;;;;;;;;13.28;70.10;99779.41;4454029;32;33961;-80
2023/04/30 01:06:32;;;;;;;;;;;;;;;13.35;70.12;99786.63;4464307;32;33118;-80
2023/04/30 01:09:00;;;;;;;;;;;;;;;13.03;71.19;99778.59;4461809;32;33763;-80
2023/04/30 01:11:32;;;;;;;;;;;;;;;13.03;71.61;99782.91;4463617;32;34001;-80
2023/04/30 01:14:15;;;;;;;;;;;;;;;13.32;70.21;99776.12;4454959;32;33925;-80
2023/04/30 01:16:46;;;;;;;;;;;;;;;12.85;72.66;99777.97;4451517;32;32924;-79
2023/04/30 01:19:17;;;;;;;;;;;;;;;12.61;73.58;99784.03;4454306;32;34823;-80
2023/04/30 01:21:44;;;;;;;;;;;;;;;12.61;73.47;99789.22;4461428;32;34034;-80
2023/04/30 01:24:24;;;;;;;;;;;;;;;12.55;74.00;99781.22;4440405;32;33874;-80
2023/04/30 01:26:52;;;;;;;;;;;;;;;12.72;72.89;99787.03;4462194;32;34062;-80
2023/04/30 01:29:20;;;;;;;;;;;;;;;12.73;72.31;99783.62;4462562;32;34258;-80
2023/04/30 01:31:47;;;;;;;;;;;;;;;12.45;73.76;99792.09;4456166;32;34232;-79
2023/04/30 01:34:15;;;;;;;;;;;;;;;12.56;73.02;99785.59;4444169;32;33864;-79
2023/04/30 01:37:01;;;;;;;;;;;;;;;12.28;74.47;99789.75;4464357;32;33399;-79
2023/04/30 01:39:37;;;;;;;;;;;;;;;12.10;75.07;99784.75;4459497;32;33905;-79
2023/04/30 01:42:05;;;;;;;;;;;;;;;12.78;71.60;99795.03;4465581;32;34882;-80
2023/04/30 01:44:33;;;;;;;;;;;;;;;12.39;73.93;99783.25;4465200;32;33989;-79
2023/04/30 01:47:04;;;;;;;;;;;;;;;13.38;69.44;99794.53;4455298;32;33347;-80
2023/04/30 01:49:53;;;;;;;;;;;;;;;13.76;66.80;99784.50;4459680;32;33996;-79
2023/04/30 01:52:33;;;;;;;;;;;;;;;13.03;69.47;99788.09;4454834;32;34276;-79
2023/04/30 01:55:07;;;;;;;;;;;;;;;12.06;73.99;99797.56;4462544;32;34177;-80
2023/04/30 01:57:43;;;;;;;;;;;;;;;12.16;74.04;99799.69;4452100;32;33797;-79
2023/04/30 02:00:10;;;;;;;;;;;;;;;11.91;74.91;99798.72;4453034;32;33862;-80
2023/04/30 02:02:39;;;;;;;;;;;;;;;11.67;76.07;99809.00;4463179;32;33840;-80
2023/04/30 02:05:07;;;;;;;;;;;;;;;11.54;77.01;99801.53;4460958;32;34087;-79
2023/04/30 02:07:41;;;;;;;;;;;;;;;11.59;76.99;99806.09;4452758;32;34008;-80
2023/04/30 02:10:10;;;;;;;;;;;;;;;11.23;78.82;99805.44;4446460;32;34897;-80
2023/04/30 02:12:38;;;;;;;;;;;;;;;11.40;78.12;99799.25;4463798;32;34261;-80
2023/04/30 02:15:05;;;;;;;;;;;;;;;11.46;77.89;99803.81;4465160;32;33768;-79
2023/04/30 02:17:33;;;;;;;;;;;;;;;11.43;78.25;99798.47;4458602;32;32763;-79
2023/04/30 02:20:00;;;;;;;;;;;;;;;11.72;77.51;99811.75;4466197;32;34156;-80
2023/04/30 02:22:27;;;;;;;;;;;;;;;12.87;71.99;99807.50;4456584;32;33966;-79
2023/04/30 02:24:56;;;;;;;;;;;;;;;13.61;68.94;99804.81;4450716;32;32043;-80
2023/04/30 02:27:24;;;;;;;;;;;;;;;13.29;68.94;99799.38;4468546;32;33746;-79
2023/04/30 02:29:51;;;;;;;;;;;;;;;12.93;71.11;99792.09;4456055;32;33249;-79
2023/04/30 02:32:19;;;;;;;;;;;;;;;12.09;74.37;99800.25;4467707;32;34438;-80
2023/04/30 02:34:46;;;;;;;;;;;;;;;12.24;74.00;99798.25;4460302;32;33362;-79
2023/04/30 02:37:13;;;;;;;;;;;;;;;11.88;75.59;99806.38;4461316;32;33263;-80
2023/04/30 02:39:41;;;;;;;;;;;;;;;12.93;71.20;99803.37;4461727;32;34591;-80
2023/04/30 02:42:27;;;;;;;;;;;;;;;13.32;69.16;99807.34;4445933;32;34885;-80
2023/04/30 02:44:54;;;;;;;;;;;;;;;13.59;66.94;99804.75;4464263;32;33886;-79
2023/04/30 02:47:22;;;;;;;;;;;;;;;13.76;66.04;99797.50;4460492;32;33461;-79
2023/04/30 02:49:49;;;;;;;;;;;;;;;13.70;66.10;99805.13;4444726;32;34153;-79
2023/04/30 02:52:17;;;;;;;;;;;;;;;11.66;74.16;99811.53;4456950;32;33709;-79
2023/04/30 02:54:44;;;;;;;;;;;;;;;10.81;78.80;99816.63;4465420;32;33801;-79
2023/04/30 02:57:11;;;;;;;;;;;;;;;12.33;72.89;99809.00;4462487;32;33947;-79
2023/04/30 02:59:39;;;;;;;;;;;;;;;12.63;71.13;99813.53;4459583;32;33933;-79
2023/04/30 03:02:06;;;;;;;;;;;;;;;12.66;70.84;99821.47;4466777;32;34483;-79
2023/04/30 03:04:33;;;;;;;;;;;;;;;12.44;71.62;99817.22;4458545;32;34017;-79
2023/04/30 03:07:02;;;;;;;;;;;;;;;12.09;73.29;99818.44;4462841;32;34421;-79
2023/04/30 03:09:30;;;;;;;;;;;;;;;12.10;73.46;99820.22;4464447;32;33847;-80
2023/04/30 03:11:57;;;;;;;;;;;;;;;12.02;74.09;99824.25;4457457;32;35141;-79
2023/04/30 03:14:25;;;;;;;;;;;;;;;12.06;74.35;99819.22;4467282;32;34210;-79
2023/04/30 03:16:52;;;;;;;;;;;;;;;12.10;74.09;99815.91;4451861;32;33265;-81
2023/04/30 03:19:23;;;;;;;;;;;;;;;11.94;74.78;99819.63;4459559;32;34631;-80
2023/04/30 03:21:51;;;;;;;;;;;;;;;11.46;77.46;99821.09;4463851;32;33622;-80
2023/04/30 03:24:18;;;;;;;;;;;;;;;11.71;75.82;99826.44;4457439;32;34633;-79
2023/04/30 03:26:45;;;;;;;;;;;;;;;11.92;75.47;99831.66;4453278;32;33481;-80
2023/04/30 03:29:13;;;;;;;;;;;;;;;11.88;75.42;99829.72;4461742;32;33819;-80
2023/04/30 03:31:41;;;;;;;;;;;;;;;11.89;75.51;99831.53;4465655;32;33350;-80
2023/04/30 03:34:08;;;;;;;;;;;;;;;11.90;75.65;99822.94;4457326;32;34168;-80
2023/04/30 03:36:36;;;;;;;;;;;;;;;12.09;74.87;99829.72;4453427;32;33051;-80
2023/04/30 03:39:04;;;;;;;;;;;;;;;12.23;74.23;99821.56;4462841;32;34270;-80
2023/04/30 03:41:32;;;;;;;;;;;;;;;12.07;75.03;99817.50;4464084;32;33870;-80
2023/04/30 03:44:00;;;;;;;;;;;;;;;11.87;76.29;99822.75;4456976;32;34014;-80
2023/04/30 03:46:27;;;;;;;;;;;;;;;11.95;76.14;99820.50;4453906;32;33879;-80
2023/04/30 03:48:54;;;;;;;;;;;;;;;11.79;76.89;99831.94;4463700;32;34185;-79
2023/04/30 03:51:22;;;;;;;;;;;;;;;11.44;78.34;99825.34;4463396;32;33546;-80
2023/04/30 03:53:49;;;;;;;;;;;;;;;11.67;78.06;99828.88;4456635;32;33345;-80
2023/04/30 03:56:17;;;;;;;;;;;;;;;11.77;78.46;99820.63;4453678;32;33478;-81
2023/04/30 03:58:44;;;;;;;;;;;;;;;11.83;78.76;99827.78;4464793;32;33894;-80
2023/04/30 04:01:11;;;;;;;;;;;;;;;12.09;79.41;99819.34;4454419;32;35041;-80
2023/04/30 04:03:39;;;;;;;;;;;;;;;11.92;82.75;99825.59;4460927;32;34242;-80
2023/04/30 04:06:06;;;;;;;;;;;;;;;11.77;84.54;99831.00;4448008;32;32135;-81
2023/04/30 04:08:35;;;;;;;;;;;;;;;11.82;85.13;99845.06;4465685;32;34184;-80
2023/04/30 04:11:02;;;;;;;;;;;;;;;12.08;83.62;99842.66;4460224;32;34212;-80
2023/04/30 04:13:29;;;;;;;;;;;;;;;12.31;82.23;99843.53;4458434;32;34642;-80
2023/04/30 04:15:58;;;;;;;;;;;;;;;12.39;81.25;99835.19;4452365;32;34068;-81
2023/04/30 04:18:25;;;;;;;;;;;;;;;12.58;80.71;99841.09;4465345;32;34661;-80
2023/04/30 04:20:53;;;;;;;;;;;;;;;12.37;82.48;99836.84;4460097;32;33866;-81
2023/04/30 04:23:21;;;;;;;;;;;;;;;12.38;83.09;99851.63;4460667;32;33329;-80
2023/04/30 04:25:49;;;;;;;;;;;;;;;12.41;83.34;99855.16;4453636;32;33516;-81
2023/04/30 04:28:16;;;;;;;;;;;;;;;12.57;83.80;99860.09;4466410;32;33876;-81
2023/04/30 04:30:44;;;;;;;;;;;;;;;12.71;83.14;99864.13;4458162;32;34518;-80
2023/04/30 04:33:12;;;;;;;;;;;;;;;12.06;85.49;99870.25;4461820;32;34559;-80
2023/04/30 04:35:39;;;;;;;;;;;;;;;11.98;85.83;99873.44;4453784;32;33491;-79
2023/04/30 04:38:06;;;;;;;;;;;;;;;12.29;85.27;99874.66;4465248;32;33579;-80
2023/04/30 04:40:34;;;;;;;;;;;;;;;12.50;83.94;99871.13;4458007;32;33385;-80
2023/04/30 04:43:02;;;;;;;;;;;;;;;11.96;86.40;99884.59;4448607;32;34054;-81
2023/04/30 04:45:30;;;;;;;;;;;;;;;12.50;84.73;99884.09;4459679;32;34068;-81
2023/04/30 04:47:58;;;;;;;;;;;;;;;12.49;84.82;99887.50;4465809;32;34251;-80
2023/04/30 04:50:26;;;;;;;;;;;;;;;12.77;83.69;99885.13;4457150;32;33544;-80
2023/04/30 04:52:53;;;;;;;;;;;;;;;12.96;83.32;99885.78;4462179;32;34456;-80
2023/04/30 04:55:22;;;;;;;;;;;;;;;12.84;84.00;99888.84;4458606;32;32717;-80
2023/04/30 04:57:49;;;;;;;;;;;;;;;12.87;84.53;99885.47;4457690;32;33533;-81
2023/04/30 05:00:17;;;;;;;;;;;;;;;12.85;85.56;99888.03;4466715;32;33358;-81
2023/04/30 05:02:45;;;;;;;;;;;;;;;12.91;85.83;99897.75;4441868;32;33325;-80
2023/04/30 05:05:12;;;;;;;;;;;;;;;13.15;85.15;99897.75;4461547;32;34011;-80
2023/04/30 05:07:39;;;;;;;;;;;;;;;13.39;84.35;99897.78;4464697;32;34103;-80
2023/04/30 05:10:07;;;;;;;;;;;;;;;13.37;83.77;99907.25;4456365;32;34473;-80
2023/04/30 05:12:34;;;;;;;;;;;;;;;13.41;83.97;99906.53;4463554;32;34652;-81
2023/04/30 05:15:03;;;;;;;;;;;;;;;13.40;83.45;99907.34;4462729;32;33496;-80
2023/04/30 05:17:31;;;;;;;;;;;;;;;13.41;84.01;99914.34;4463839;32;35369;-81
2023/04/30 05:19:58;;;;;;;;;;;;;;;13.80;82.09;99915.66;4455953;32;34188;-80
2023/04/30 05:22:25;;;;;;;;;;;;;;;14.02;80.88;99917.22;4466143;32;34095;-81
2023/04/30 05:24:52;;;;;;;;;;;;;;;13.87;81.14;99921.12;4459729;32;33236;-81
2023/04/30 05:27:20;;;;;;;;;;;;;;;13.64;80.79;99919.47;4459191;32;33563;-81
2023/04/30 05:29:47;;;;;;;;;;;;;;;13.61;81.45;99920.22;4465450;32;34128;-81
2023/04/30 05:32:15;;;;;;;;;;;;;;;13.71;80.91;99918.81;4466304;32;33953;-81
2023/04/30 05:34:42;;;;;;;;;;;;;;;13.44;81.16;99921.34;4457257;32;33774;-81
2023/04/30 05:37:11;;;;;;;;;;;;;;;13.68;80.46;99922.22;4461325;32;34952;-80
2023/04/30 05:39:38;;;;;;;;;;;;;;;14.19;78.71;99928.22;4464474;32;34940;-81
2023/04/30 05:42:06;;;;;;;;;;;;;;;14.40;77.82;99925.41;4467706;32;33716;-81
2023/04/30 05:44:33;;;;;;;;;;;;;;;14.26;76.95;99932.78;4447142;32;34073;-81
2023/04/30 05:47:00;;;;;;;;;;;;;;;13.85;78.54;99933.19;4458065;32;34064;-81
2023/04/30 05:49:28;;;;;;;;;;;;;;;13.70;79.63;99935.28;4462132;32;34010;-81
2023/04/30 05:51:55;;;;;;;;;;;;;;;13.51;80.62;99929.44;4443099;32;32301;-81
2023/04/30 05:54:22;;;;;;;;;;;;;;;13.41;81.13;99932.53;4442326;32;33909;-81
2023/04/30 05:56:50;;;;;;;;;;;;;;;12.84;85.17;99937.34;4463391;32;34845;-81
2023/04/30 05:59:17;;;;;;;;;;;;;;;13.47;81.64;99935.34;4455136;32;34324;-80
2023/04/30 06:01:44;;;;;;;;;;;;;;;13.04;83.69;99939.00;4443466;32;33978;-81
2023/04/30 06:04:14;;;;;;;;;;;;;;;13.36;82.15;99936.69;4465324;32;33087;-81
2023/04/30 06:06:42;;;;;;;;;;;;;;;13.44;82.17;99934.38;4458111;32;33961;-80
2023/04/30 06:09:09;;;;;;;;;;;;;;;13.38;83.75;99937.63;4460851;32;33918;-81
2023/04/30 06:11:37;;;;;;;;;;;;;;;13.84;80.24;99941.81;4444689;32;34297;-81
2023/04/30 06:14:06;;;;;;;;;;;;;;;13.61;81.43;99945.38;4462778;32;32965;-80
2023/04/30 06:16:33;;;;;;;;;;;;;;;13.18;84.80;99940.37;4460321;32;33642;-81
2023/04/30 06:19:01;;;;;;;;;;;;;;;13.33;82.68;99944.41;4461932;32;35485;-81
2023/04/30 06:21:28;;;;;;;;;;;;;;;14.05;80.27;99940.78;4445861;32;34348;-80
2023/04/30 06:23:55;;;;;;;;;;;;;;;14.22;79.13;99942.22;4462978;32;33209;-81
2023/04/30 06:26:22;;;;;;;;;;;;;;;14.19;79.02;99930.81;4443376;32;33991;-81
2023/04/30 06:28:50;;;;;;;;;;;;;;;14.42;78.10;99940.22;4462819;32;33975;-81
2023/04/30 06:31:17;;;;;;;;;;;;;;;14.45;78.60;99935.13;4460486;32;33922;-81
2023/04/30 06:33:44;;;;;;;;;;;;;;;14.41;77.77;99924.53;4460447;32;33163;-81
2023/04/30 06:36:12;;;;;;;;;;;;;;;14.16;78.67;99926.41;4455732;32;34044;-81
2023/04/30 06:38:39;;;;;;;;;;;;;;;13.60;80.79;99933.16;4463741;32;33948;-81
2023/04/30 06:41:06;;;;;;;;;;;;;;;14.15;79.71;99929.81;4444617;32;33762;-81
2023/04/30 06:43:34;;;;;;;;;;;;;;;14.57;77.56;99929.44;4457972;32;33995;-80
2023/04/30 06:46:01;;;;;;;;;;;;;;;14.51;76.98;99934.44;4450744;32;33756;-81
2023/04/30 06:48:28;;;;;;;;;;;;;;;14.81;75.30;99937.09;4464814;32;34131;-80
2023/04/30 06:50:55;;;;;;;;;;;;;;;14.82;75.24;99936.28;4447471;32;34153;-81
2023/04/30 06:53:23;;;;;;;;;;;;;;;14.86;75.37;99932.03;4454285;32;33406;-81
2023/04/30 06:55:51;;;;;;;;;;;;;;;14.02;78.41;99938.06;4455962;32;34248;-82
2023/04/30 06:58:18;;;;;;;;;;;;;;;14.82;75.58;99935.41;4464224;32;34200;-82
2023/04/30 07:00:45;;;;;;;;;;;;;;;14.81;75.35;99933.63;4449531;32;34150;-80
2023/04/30 07:03:13;;;;;;;;;;;;;;;15.56;71.52;99940.09;4453393;32;33501;-82
2023/04/30 07:05:40;;;;;;;;;;;;;;;15.98;70.24;99942.09;4456789;32;34373;-81
2023/04/30 07:08:08;;;;;;;;;;;;;;;16.45;67.25;99944.97;4463800;32;34207;-81
2023/04/30 07:10:35;;;;;;;;;;;;;;;17.19;64.77;99941.34;4447327;32;34141;-82
2023/04/30 07:13:02;;;;;;;;;;;;;;;16.92;66.36;99937.34;4460953;32;33361;-81
2023/04/30 07:15:30;;;;;;;;;;;;;;;17.99;62.02;99927.16;4462216;32;34069;-81
2023/04/30 07:17:57;;;;;;;;;;;;;;;18.36;59.02;99933.00;4457276;32;34087;-81
2023/04/30 07:20:24;;;;;;;;;;;;;;;18.00;60.09;99934.16;4447831;32;34216;-81
2023/04/30 07:22:53;;;;;;;;;;;;;;;17.57;60.65;99923.75;4450841;32;34040;-81
2023/04/30 07:25:20;;;;;;;;;;;;;;;18.17;60.84;99931.81;4461006;32;34721;-81
2023/04/30 07:27:48;;;;;;;;;;;;;;;18.52;58.87;99929.72;4466716;32;35048;-81
2023/04/30 07:30:15;;;;;;;;;;;;;;;18.74;57.53;99927.44;4447268;32;33494;-80
2023/04/30 07:32:43;;;;;;;;;;;;;;;18.80;56.06;99914.41;4465024;32;33114;-81
2023/04/30 07:35:10;;;;;;;;;;;;;;;18.49;56.89;99913.97;4462240;32;34236;-81
2023/04/30 07:37:37;;;;;;;;;;;;;;;18.77;56.79;99924.81;4454631;32;33534;-81
2023/04/30 07:40:11;;;;;;;;;;;;;;;19.25;54.56;99928.97;4465973;32;34472;-82
2023/04/30 07:42:45;;;;;;;;;;;;;;;19.59;53.77;99929.34;4459364;32;33534;-81
2023/04/30 07:45:12;;;;;;;;;;;;;;;20.09;52.51;99930.69;4461999;32;34827;-80
2023/04/30 07:47:40;;;;;;;;;;;;;;;20.96;50.93;99915.50;4465380;32;33959;-80
2023/04/30 07:50:09;;;;;;;;;;;;;;;20.68;49.26;99921.50;4451581;32;33553;-81
2023/04/30 07:52:37;;;;;;;;;;;;;;;18.65;54.48;99926.41;4454100;32;33153;-82
2023/04/30 07:55:04;;;;;;;;;;;;;;;19.25;53.58;99934.22;4462458;32;34140;-81
2023/04/30 07:57:31;;;;;;;;;;;;;;;20.21;51.38;99931.69;4464529;32;33935;-81
2023/04/30 07:59:59;;;;;;;;;;;;;;;19.93;50.98;99932.31;4457056;32;34125;-81
2023/04/30 08:02:26;;;;;;;;;;;;;;;20.28;49.91;99937.88;4465617;32;33385;-81
2023/04/30 08:04:54;;;;;;;;;;;;;;;20.00;51.70;99931.50;4464040;32;33858;-81
2023/04/30 08:07:21;;;;;;;;;;;;;;;20.03;51.71;99936.81;4463196;32;33584;-81
2023/04/30 08:09:48;;;;;;;;;;;;;;;20.37;49.98;99926.53;4457210;32;34324;-79
2023/04/30 08:12:15;;;;;;;;;;;;;;;19.75;50.45;99946.19;4467080;32;34191;-81
2023/04/30 08:14:43;;;;;;;;;;;;;;;20.02;50.59;99924.50;4458904;32;34839;-82
2023/04/30 08:17:10;;;;;;;;;;;;;;;20.40;50.70;99926.56;4462248;32;34750;-81
2023/04/30 08:19:38;;;;;;;;;;;;;;;20.26;47.99;99930.81;4445138;32;34169;-81
2023/04/30 08:22:05;;;;;;;;;;;;;;;19.32;50.69;99919.44;4465295;32;33323;-81
2023/04/30 08:24:32;;;;;;;;;;;;;;;20.07;49.66;99935.97;4456856;32;33908;-81
2023/04/30 08:27:02;;;;;;;;;;;;;;;20.87;46.97;99925.97;4459573;32;34326;-82
2023/04/30 08:29:30;;;;;;;;;;;;;;;20.56;46.19;99928.41;4458507;32;33673;-81
2023/04/30 08:31:57;;;;;;;;;;;;;;;20.27;45.72;99906.28;4456773;32;33177;-80
2023/04/30 08:34:25;;;;;;;;;;;;;;;20.18;45.81;99926.38;4444626;32;34205;-81
2023/04/30 08:36:52;;;;;;;;;;;;;;;20.10;46.45;99921.94;4451212;32;33685;-81
2023/04/30 08:39:19;;;;;;;;;;;;;;;20.25;45.76;99923.81;4460876;32;34636;-80
2023/04/30 08:41:50;;;;;;;;;;;;;;;21.31;45.18;99920.00;4466116;32;33186;-82
2023/04/30 08:44:17;;;;;;;;;;;;;;;19.15;49.50;99913.97;4455543;32;33480;-81
2023/04/30 08:46:45;;;;;;;;;;;;;;;20.35;46.46;99912.47;4459513;32;34693;-80
2023/04/30 08:49:12;;;;;;;;;;;;;;;19.57;50.16;99918.81;4460266;32;33888;-80
2023/04/30 08:51:39;;;;;;;;;;;;;;;18.60;49.22;99919.34;4464193;32;33878;-82
2023/04/30 08:54:08;;;;;;;;;;;;;;;18.97;48.43;99912.00;4442519;32;33750;-80
2023/04/30 08:56:36;;;;;;;;;;;;;;;19.34;47.39;99923.81;4459807;32;34195;-81
2023/04/30 08:59:03;;;;;;;;;;;;;;;18.93;49.41;99911.09;4462230;32;33725;-81
2023/04/30 09:01:30;;;;;;;;;;;;;;;19.41;48.49;99915.16;4443532;32;33158;-80
2023/04/30 09:03:58;;;;;;;;;;;;;;;19.37;47.71;99928.22;4464310;32;34012;-81
2023/04/30 09:06:26;;;;;;;;;;;;;;;19.59;45.56;99916.22;4455777;32;34130;-81
2023/04/30 09:08:53;;;;;;;;;;;;;;;19.73;45.24;99921.62;4457630;32;34164;-81
2023/04/30 09:11:21;;;;;;;;;;;;;;;19.22;45.64;99915.81;4456404;32;33170;-79
2023/04/30 09:13:49;;;;;;;;;;;;;;;18.86;47.30;99906.62;4457328;32;34084;-81
2023/04/30 09:16:17;;;;;;;;;;;;;;;18.75;47.47;99921.31;4466720;32;34877;-80
2023/04/30 09:18:46;;;;;;;;;;;;;;;18.92;46.11;99919.81;4454045;32;34156;-81
2023/04/30 09:21:13;;;;;;;;;;;;;;;19.19;47.76;99914.00;4460660;32;34153;-81
2023/04/30 09:23:59;;;;;;;;;;;;;;;18.75;47.00;99919.56;4458438;32;34179;-81
2023/04/30 09:26:30;;;;;;;;;;;;;;;18.85;48.01;99912.72;4444628;32;34379;-81
2023/04/30 09:28:57;;;;;;;;;;;;;;;18.96;49.59;99908.47;4461872;32;33961;-80
2023/04/30 09:31:25;;;;;;;;;;;;;;;18.56;49.73;99915.81;4457673;32;33395;-81
2023/04/30 09:33:53;;;;;;;;;;;;;;;18.97;49.90;99902.37;4456794;32;34507;-81
2023/04/30 09:36:20;;;;;;;;;;;;;;;19.02;49.88;99908.56;4466553;32;34331;-81
2023/04/30 09:38:47;;;;;;;;;;;;;;;18.92;49.71;99904.06;4455111;32;34118;-80
2023/04/30 09:41:22;;;;;;;;;;;;;;;18.49;49.92;99913.97;4457661;32;33619;-80
2023/04/30 09:43:49;;;;;;;;;;;;;;;18.64;50.43;99895.81;4463023;32;34068;-80
2023/04/30 09:46:20;;;;;;;;;;;;;;;18.11;50.95;99906.38;4458348;32;34947;-79
2023/04/30 09:48:57;;;;;;;;;;;;;;;17.93;51.33;99906.97;4464352;32;34723;-81
2023/04/30 09:51:25;;;;;;;;;;;;;;;18.60;50.77;99895.72;4455629;32;33510;-80
2023/04/30 09:53:53;;;;;;;;;;;;;;;19.17;47.46;99899.12;4449910;32;34739;-80
2023/04/30 09:56:22;;;;;;;;;;;;;;;19.51;46.26;99899.47;4439656;32;33771;-80
2023/04/30 09:58:51;;;;;;;;;;;;;;;19.92;45.89;99902.53;4453125;32;34536;-82
2023/04/30 10:01:18;;;;;;;;;;;;;;;19.97;45.94;99889.41;4453638;32;33053;-82
2023/04/30 10:03:47;;;;;;;;;;;;;;;19.87;45.26;99903.34;4455214;32;34555;-81
2023/04/30 10:06:15;;;;;;;;;;;;;;;20.08;44.69;99900.88;4457425;32;34113;-81
2023/04/30 10:08:44;;;;;;;;;;;;;;;19.84;43.89;99899.81;4453814;32;34076;-82
2023/04/30 10:11:15;;;;;;;;;;;;;;;19.69;42.12;99898.78;4437551;32;33151;-80
2023/04/30 10:13:45;;;;;;;;;;;;;;;19.84;44.96;99898.94;4452784;32;34011;-81
2023/04/30 10:16:23;;;;;;;;;;;;;;;20.29;44.86;99881.75;4454588;32;34907;-82
2023/04/30 10:18:51;;;;;;;;;;;;;;;20.41;43.66;99880.94;4452955;32;34634;-81
2023/04/30 10:21:20;;;;;;;;;;;;;;;20.25;43.69;99892.25;4455328;32;33293;-81
2023/04/30 10:23:47;;;;;;;;;;;;;;;20.38;43.36;99886.22;4455770;32;34089;-81
2023/04/30 10:26:15;;;;;;;;;;;;;;;20.30;44.98;99885.25;4452012;32;34821;-81
2023/04/30 10:28:43;;;;;;;;;;;;;;;20.76;43.15;99882.91;4453666;32;33692;-82
2023/04/30 10:31:10;;;;;;;;;;;;;;;20.88;43.36;99877.72;4454372;32;33203;-81
2023/04/30 10:33:48;;;;;;;;;;;;;;;20.34;43.52;99881.78;4454304;32;34400;-81
2023/04/30 10:36:45;;;;;;;;;;;;;;;20.06;44.55;99893.87;4454367;32;33252;-81
2023/04/30 10:39:13;;;;;;;;;;;;;;;20.40;43.97;99889.72;4436979;32;33840;-81
2023/04/30 10:41:43;;;;;;;;;;;;;;;20.92;42.49;99886.50;4451856;32;33765;-80
2023/04/30 10:44:10;;;;;;;;;;;;;;;20.80;42.77;99882.06;4454533;32;33385;-83
2023/04/30 10:46:38;;;;;;;;;;;;;;;20.43;41.80;99879.19;4453994;32;34291;-81
2023/04/30 10:49:06;;;;;;;;;;;;;;;20.46;43.10;99878.37;4439510;32;33316;-82
2023/04/30 10:51:50;;;;;;;;;;;;;;;20.22;41.88;99870.31;4454714;32;33621;-80
2023/04/30 10:54:21;;;;;;;;;;;;;;;20.31;43.09;99874.75;4458259;32;34478;-81
2023/04/30 10:56:49;;;;;;;;;;;;;;;20.07;40.92;99880.75;4456429;32;33934;-81
2023/04/30 10:59:16;;;;;;;;;;;;;;;20.55;41.68;99863.50;4453412;32;34342;-81
2023/04/30 11:02:00;;;;;;;;;;;;;;;19.86;42.56;99875.28;4455072;32;32643;-81
2023/04/30 11:04:27;;;;;;;;;;;;;;;20.52;42.02;99874.00;4444673;32;33911;-81
2023/04/30 11:07:06;;;;;;;;;;;;;;;20.45;42.36;99861.66;4461568;32;35029;-81
2023/04/30 11:09:39;;;;;;;;;;;;;;;20.71;42.37;99869.75;4451883;32;33992;-81
2023/04/30 11:12:14;;;;;;;;;;;;;;;19.68;43.39;99870.72;4456747;32;33190;-82
2023/04/30 11:14:42;;;;;;;;;;;;;;;19.00;45.23;99863.03;4448531;32;34695;-80
2023/04/30 11:17:10;;;;;;;;;;;;;;;20.17;43.62;99858.88;4458925;32;34892;-81
2023/04/30 11:19:50;;;;;;;;;;;;;;;20.23;42.38;99866.81;4460205;32;32623;-81
2023/04/30 11:22:18;;;;;;;;;;;;;;;20.26;41.52;99863.31;4443606;32;33869;-82
2023/04/30 11:24:48;;;;;;;;;;;;;;;20.59;41.35;99869.63;4449125;32;34986;-79
2023/04/30 11:27:25;;;;;;;;;;;;;;;20.21;42.01;99863.28;4457459;32;34966;-82
2023/04/30 11:29:53;;;;;;;;;;;;;;;20.43;42.24;99874.81;4462408;32;34047;-83
2023/04/30 11:32:22;;;;;;;;;;;;;;;20.59;42.39;99859.09;4465339;32;32990;-83
2023/04/30 11:34:49;;;;;;;;;;;;;;;20.37;40.79;99868.66;4452606;32;33886;-81
2023/04/30 11:37:33;;;;;;;;;;;;;;;21.29;40.35;99866.44;4455798;32;34862;-82
2023/04/30 11:40:01;;;;;;;;;;;;;;;21.77;39.35;99866.53;4459103;32;34183;-81
2023/04/30 11:42:30;;;;;;;;;;;;;;;21.68;40.48;99864.75;4456610;32;33218;-81
2023/04/30 11:45:06;;;;;;;;;;;;;;;22.08;38.13;99870.03;4451037;32;34168;-82
2023/04/30 11:47:37;;;;;;;;;;;;;;;22.35;39.05;99866.50;4451364;32;34089;-82
2023/04/30 11:50:06;;;;;;;;;;;;;;;22.06;37.04;99863.87;4448767;32;34148;-81
2023/04/30 11:52:33;;;;;;;;;;;;;;;21.52;38.32;99865.63;4455301;32;33774;-82
2023/04/30 11:55:04;;;;;;;;;;;;;;;21.13;39.42;99867.25;4463009;32;34595;-81
2023/04/30 11:57:34;;;;;;;;;;;;;;;21.10;39.94;99872.53;4444977;32;34630;-83
2023/04/30 12:00:09;;;;;;;;;;;;;;;21.10;40.58;99872.53;4452026;32;32226;-82
2023/04/30 12:02:38;;;;;;;;;;;;;;;20.64;39.75;99869.72;4459404;32;33823;-83
2023/04/30 12:05:32;;;;;;;;;;;;;;;20.41;39.77;99870.44;4461696;32;33954;-81
2023/04/30 12:08:03;;;;;;;;;;;;;;;20.45;40.63;99869.56;4459869;32;34816;-83
2023/04/30 12:10:30;;;;;;;;;;;;;;;20.72;40.92;99873.25;4454062;32;33803;-82
2023/04/30 12:12:57;;;;;;;;;;;;;;;20.58;40.65;99867.91;4455505;32;33278;-84
2023/04/30 12:15:25;;;;;;;;;;;;;;;20.11;41.35;99877.25;4459296;32;33663;-81
2023/04/30 12:17:54;;;;;;;;;;;;;;;19.68;41.69;99871.59;4463904;32;34857;-80
2023/04/30 12:20:22;;;;;;;;;;;;;;;19.75;42.38;99873.44;4455490;32;33020;-81
2023/04/30 12:22:49;;;;;;;;;;;;;;;18.94;43.01;99870.84;4460731;32;34021;-82
2023/04/30 12:25:17;;;;;;;;;;;;;;;19.26;43.43;99867.72;4455689;32;34281;-82
2023/04/30 12:27:45;;;;;;;;;;;;;;;19.91;42.98;99863.06;4449370;32;33498;-82
2023/04/30 12:30:13;;;;;;;;;;;;;;;19.68;42.80;99865.47;4465831;32;33947;-82
2023/04/30 12:32:41;;;;;;;;;;;;;;;19.57;43.17;99862.75;4438986;32;31685;-83
2023/04/30 12:35:13;;;;;;;;;;;;;;;19.75;42.55;99868.19;4450707;32;34086;-83
2023/04/30 12:37:43;;;;;;;;;;;;;;;19.93;41.37;99846.44;4454749;32;34276;-83
2023/04/30 12:40:12;;;;;;;;;;;;;;;20.06;41.09;99857.91;4447016;32;34274;-82
2023/04/30 12:42:42;;;;;;;;;;;;;;;20.47;41.10;99844.12;4466859;32;34063;-83
2023/04/30 12:45:10;;;;;;;;;;;;;;;21.06;39.55;99849.69;4456431;32;33483;-82
2023/04/30 12:47:39;;;;;;;;;;;;;;;20.77;41.11;99838.19;4446940;32;33601;-84
2023/04/30 12:50:11;;;;;;;;;;;;;;;21.26;38.58;99837.44;4451747;32;33654;-81
2023/04/30 12:52:39;;;;;;;;;;;;;;;21.38;38.09;99839.22;4460050;32;33761;-82
2023/04/30 12:55:13;;;;;;;;;;;;;;;21.66;39.37;99842.78;4453628;32;34645;-82